sensor_id;sensor_type;location;lat;lon;timestamp;P1;durP1;ratioP1;P2;durP2;ratioP2
10769;SDS011;5437;50.852;4.438;2023-03-01T00:01:32;10.85;;;8.52;;
10769;SDS011;5437;50.852;4.438;2023-03-01T00:03:58;9.48;;;8.45;;
10769;SDS011;5437;50.852;4.438;2023-03-01T00:06:24;9.50;;;8.50;;
10769;SDS011;5437;50.852;4.438;2023-03-01T00:08:51;10.40;;;8.07;;
10769;SDS011;5437;50.852;4.438;2023-03-01T00:11:18;10.60;;;8.35;;
10769;SDS011;5437;50.852;4.438;2023-03-01T00:13:44;10.15;;;8.35;;
10769;SDS011;5437;50.852;4.438;2023-03-01T00:16:12;8.60;;;7.70;;
10769;SDS011;5437;50.852;4.438;2023-03-01T00:18:39;9.55;;;8.52;;
10769;SDS011;5437;50.852;4.438;2023-03-01T00:21:05;10.82;;;8.32;;
10769;SDS011;5437;50.852;4.438;2023-03-01T00:23:31;10.30;;;8.83;;
10769;SDS011;5437;50.852;4.438;2023-03-01T00:25:59;10.90;;;8.60;;
10769;SDS011;5437;50.852;4.438;2023-03-01T00:28:25;8.90;;;8.02;;
10769;SDS011;5437;50.852;4.438;2023-03-01T00:30:51;9.55;;;8.50;;
10769;SDS011;5437;50.852;4.438;2023-03-01T00:33:17;9.30;;;8.38;;
10769;SDS011;5437;50.852;4.438;2023-03-01T00:35:43;10.30;;;8.73;;
10769;SDS011;5437;50.852;4.438;2023-03-01T00:38:09;10.10;;;8.98;;
10769;SDS011;5437;50.852;4.438;2023-03-01T00:40:36;10.18;;;8.80;;
10769;SDS011;5437;50.852;4.438;2023-03-01T00:43:02;10.50;;;8.90;;
10769;SDS011;5437;50.852;4.438;2023-03-01T00:45:28;9.65;;;8.65;;
10769;SDS011;5437;50.852;4.438;2023-03-01T00:47:56;9.75;;;8.75;;
10769;SDS011;5437;50.852;4.438;2023-03-01T00:50:23;9.18;;;8.00;;
10769;SDS011;5437;50.852;4.438;2023-03-01T00:52:52;10.32;;;8.05;;
10769;SDS011;5437;50.852;4.438;2023-03-01T00:55:18;9.90;;;8.43;;
10769;SDS011;5437;50.852;4.438;2023-03-01T00:57:44;9.43;;;8.48;;
10769;SDS011;5437;50.852;4.438;2023-03-01T01:00:10;11.43;;;8.73;;
10769;SDS011;5437;50.852;4.438;2023-03-01T01:02:36;10.35;;;8.60;;
10769;SDS011;5437;50.852;4.438;2023-03-01T01:05:02;9.43;;;8.40;;
10769;SDS011;5437;50.852;4.438;2023-03-01T01:07:28;9.65;;;8.60;;
10769;SDS011;5437;50.852;4.438;2023-03-01T01:09:54;10.18;;;8.18;;
10769;SDS011;5437;50.852;4.438;2023-03-01T01:12:21;9.70;;;8.10;;
10769;SDS011;5437;50.852;4.438;2023-03-01T01:14:47;11.10;;;9.10;;
10769;SDS011;5437;50.852;4.438;2023-03-01T01:17:13;8.85;;;7.72;;
10769;SDS011;5437;50.852;4.438;2023-03-01T01:19:39;9.27;;;8.02;;
10769;SDS011;5437;50.852;4.438;2023-03-01T01:22:05;8.70;;;7.80;;
10769;SDS011;5437;50.852;4.438;2023-03-01T01:24:31;10.95;;;8.43;;
10769;SDS011;5437;50.852;4.438;2023-03-01T01:26:57;10.05;;;8.32;;
10769;SDS011;5437;50.852;4.438;2023-03-01T01:29:23;10.40;;;8.10;;
10769;SDS011;5437;50.852;4.438;2023-03-01T01:31:49;11.20;;;8.23;;
10769;SDS011;5437;50.852;4.438;2023-03-01T01:34:15;10.43;;;7.80;;
10769;SDS011;5437;50.852;4.438;2023-03-01T01:36:42;9.07;;;7.47;;
10769;SDS011;5437;50.852;4.438;2023-03-01T01:39:08;9.45;;;8.45;;
10769;SDS011;5437;50.852;4.438;2023-03-01T01:41:38;8.30;;;7.50;;
10769;SDS011;5437;50.852;4.438;2023-03-01T01:57:02;9.77;;;8.32;;
10769;SDS011;5437;50.852;4.438;2023-03-01T01:59:30;9.77;;;7.50;;
10769;SDS011;5437;50.852;4.438;2023-03-01T02:01:56;10.25;;;7.75;;
10769;SDS011;5437;50.852;4.438;2023-03-01T02:04:25;10.95;;;8.57;;
10769;SDS011;5437;50.852;4.438;2023-03-01T02:06:56;10.15;;;8.13;;
10769;SDS011;5437;50.852;4.438;2023-03-01T02:09:23;8.65;;;7.75;;
10769;SDS011;5437;50.852;4.438;2023-03-01T02:11:50;10.00;;;8.10;;
10769;SDS011;5437;50.852;4.438;2023-03-01T02:14:16;8.73;;;7.65;;
10769;SDS011;5437;50.852;4.438;2023-03-01T02:16:43;9.35;;;8.00;;
10769;SDS011;5437;50.852;4.438;2023-03-01T02:19:10;9.43;;;7.97;;
10769;SDS011;5437;50.852;4.438;2023-03-01T02:24:31;11.20;;;8.05;;
10769;SDS011;5437;50.852;4.438;2023-03-01T02:26:55;10.60;;;8.30;;
10769;SDS011;5437;50.852;4.438;2023-03-01T02:29:22;8.35;;;7.50;;
10769;SDS011;5437;50.852;4.438;2023-03-01T02:31:49;10.48;;;8.32;;
10769;SDS011;5437;50.852;4.438;2023-03-01T02:34:23;9.63;;;7.55;;
10769;SDS011;5437;50.852;4.438;2023-03-01T02:36:58;10.75;;;8.32;;
10769;SDS011;5437;50.852;4.438;2023-03-01T02:39:30;8.65;;;7.70;;
10769;SDS011;5437;50.852;4.438;2023-03-01T02:41:57;10.57;;;8.52;;
10769;SDS011;5437;50.852;4.438;2023-03-01T02:44:25;8.75;;;7.82;;
10769;SDS011;5437;50.852;4.438;2023-03-01T02:46:52;11.40;;;8.13;;
10769;SDS011;5437;50.852;4.438;2023-03-01T02:49:26;8.70;;;7.47;;
10769;SDS011;5437;50.852;4.438;2023-03-01T02:54:56;8.75;;;7.80;;
10769;SDS011;5437;50.852;4.438;2023-03-01T02:57:24;9.40;;;8.18;;
10769;SDS011;5437;50.852;4.438;2023-03-01T02:59:52;9.27;;;7.88;;
10769;SDS011;5437;50.852;4.438;2023-03-01T03:02:24;8.82;;;7.63;;
10769;SDS011;5437;50.852;4.438;2023-03-01T03:07:33;9.25;;;8.02;;
10769;SDS011;5437;50.852;4.438;2023-03-01T03:09:59;8.32;;;7.30;;
10769;SDS011;5437;50.852;4.438;2023-03-01T03:12:25;8.40;;;7.50;;
10769;SDS011;5437;50.852;4.438;2023-03-01T03:14:51;9.65;;;7.38;;
10769;SDS011;5437;50.852;4.438;2023-03-01T03:17:17;10.15;;;7.70;;
10769;SDS011;5437;50.852;4.438;2023-03-01T03:19:43;9.18;;;7.93;;
10769;SDS011;5437;50.852;4.438;2023-03-01T03:22:10;8.85;;;7.43;;
10769;SDS011;5437;50.852;4.438;2023-03-01T03:24:36;9.60;;;8.23;;
10769;SDS011;5437;50.852;4.438;2023-03-01T03:27:03;8.82;;;7.75;;
10769;SDS011;5437;50.852;4.438;2023-03-01T03:29:29;9.45;;;8.40;;
10769;SDS011;5437;50.852;4.438;2023-03-01T03:31:55;8.70;;;7.88;;
10769;SDS011;5437;50.852;4.438;2023-03-01T03:34:21;10.20;;;7.65;;
10769;SDS011;5437;50.852;4.438;2023-03-01T03:36:47;10.75;;;7.78;;
10769;SDS011;5437;50.852;4.438;2023-03-01T03:39:13;8.80;;;7.47;;
10769;SDS011;5437;50.852;4.438;2023-03-01T03:41:39;9.98;;;7.75;;
10769;SDS011;5437;50.852;4.438;2023-03-01T03:44:05;12.05;;;8.23;;
10769;SDS011;5437;50.852;4.438;2023-03-01T03:46:31;9.52;;;8.18;;
10769;SDS011;5437;50.852;4.438;2023-03-01T03:48:57;9.30;;;8.23;;
10769;SDS011;5437;50.852;4.438;2023-03-01T03:51:23;9.55;;;7.93;;
10769;SDS011;5437;50.852;4.438;2023-03-01T03:53:49;8.77;;;7.82;;
10769;SDS011;5437;50.852;4.438;2023-03-01T03:56:15;9.02;;;8.00;;
10769;SDS011;5437;50.852;4.438;2023-03-01T03:58:41;10.98;;;7.93;;
10769;SDS011;5437;50.852;4.438;2023-03-01T04:01:08;11.00;;;7.70;;
10769;SDS011;5437;50.852;4.438;2023-03-01T04:03:34;10.80;;;8.43;;
10769;SDS011;5437;50.852;4.438;2023-03-01T04:06:01;10.32;;;8.13;;
10769;SDS011;5437;50.852;4.438;2023-03-01T04:08:29;10.05;;;7.82;;
10769;SDS011;5437;50.852;4.438;2023-03-01T04:10:59;9.65;;;8.18;;
10769;SDS011;5437;50.852;4.438;2023-03-01T04:13:45;10.85;;;8.27;;
10769;SDS011;5437;50.852;4.438;2023-03-01T04:16:11;10.73;;;8.63;;
10769;SDS011;5437;50.852;4.438;2023-03-01T04:18:37;9.65;;;8.32;;
10769;SDS011;5437;50.852;4.438;2023-03-01T04:21:03;10.70;;;7.97;;
10769;SDS011;5437;50.852;4.438;2023-03-01T04:23:30;10.20;;;8.32;;
10769;SDS011;5437;50.852;4.438;2023-03-01T04:25:56;12.35;;;8.48;;
10769;SDS011;5437;50.852;4.438;2023-03-01T04:31:08;10.23;;;8.40;;
10769;SDS011;5437;50.852;4.438;2023-03-01T04:33:46;9.73;;;7.85;;
10769;SDS011;5437;50.852;4.438;2023-03-01T04:36:13;9.30;;;8.15;;
10769;SDS011;5437;50.852;4.438;2023-03-01T04:38:39;9.10;;;8.13;;
10769;SDS011;5437;50.852;4.438;2023-03-01T04:41:06;11.35;;;8.40;;
10769;SDS011;5437;50.852;4.438;2023-03-01T04:43:32;10.15;;;8.15;;
10769;SDS011;5437;50.852;4.438;2023-03-01T04:46:09;9.98;;;7.80;;
10769;SDS011;5437;50.852;4.438;2023-03-01T04:48:37;9.32;;;7.82;;
10769;SDS011;5437;50.852;4.438;2023-03-01T04:51:03;10.77;;;8.43;;
10769;SDS011;5437;50.852;4.438;2023-03-01T04:53:30;10.35;;;8.10;;
10769;SDS011;5437;50.852;4.438;2023-03-01T04:55:57;10.80;;;7.97;;
10769;SDS011;5437;50.852;4.438;2023-03-01T04:58:24;11.50;;;8.45;;
10769;SDS011;5437;50.852;4.438;2023-03-01T05:00:50;10.55;;;8.70;;
10769;SDS011;5437;50.852;4.438;2023-03-01T05:03:17;10.40;;;8.52;;
10769;SDS011;5437;50.852;4.438;2023-03-01T05:05:43;9.30;;;7.85;;
10769;SDS011;5437;50.852;4.438;2023-03-01T05:08:09;11.45;;;8.20;;
10769;SDS011;5437;50.852;4.438;2023-03-01T05:10:42;10.20;;;8.10;;
10769;SDS011;5437;50.852;4.438;2023-03-01T05:13:08;10.63;;;8.38;;
10769;SDS011;5437;50.852;4.438;2023-03-01T05:15:34;10.07;;;8.20;;
10769;SDS011;5437;50.852;4.438;2023-03-01T05:18:01;11.18;;;8.43;;
10769;SDS011;5437;50.852;4.438;2023-03-01T05:20:28;10.40;;;8.32;;
10769;SDS011;5437;50.852;4.438;2023-03-01T05:22:55;9.32;;;8.25;;
10769;SDS011;5437;50.852;4.438;2023-03-01T05:25:21;9.52;;;7.75;;
10769;SDS011;5437;50.852;4.438;2023-03-01T05:27:47;11.00;;;8.68;;
10769;SDS011;5437;50.852;4.438;2023-03-01T05:30:14;11.48;;;8.93;;
10769;SDS011;5437;50.852;4.438;2023-03-01T05:32:41;10.45;;;8.68;;
10769;SDS011;5437;50.852;4.438;2023-03-01T05:35:08;9.25;;;8.00;;
10769;SDS011;5437;50.852;4.438;2023-03-01T05:37:34;10.85;;;8.60;;
10769;SDS011;5437;50.852;4.438;2023-03-01T05:40:00;9.07;;;8.15;;
10769;SDS011;5437;50.852;4.438;2023-03-01T05:42:28;10.07;;;7.88;;
10769;SDS011;5437;50.852;4.438;2023-03-01T05:44:54;9.70;;;7.93;;
10769;SDS011;5437;50.852;4.438;2023-03-01T05:47:20;12.80;;;8.82;;
10769;SDS011;5437;50.852;4.438;2023-03-01T05:49:46;9.43;;;8.30;;
10769;SDS011;5437;50.852;4.438;2023-03-01T05:52:12;10.60;;;8.52;;
10769;SDS011;5437;50.852;4.438;2023-03-01T05:54:38;11.05;;;8.40;;
10769;SDS011;5437;50.852;4.438;2023-03-01T05:57:04;10.52;;;8.00;;
10769;SDS011;5437;50.852;4.438;2023-03-01T05:59:30;10.25;;;8.63;;
10769;SDS011;5437;50.852;4.438;2023-03-01T06:01:56;11.20;;;8.95;;
10769;SDS011;5437;50.852;4.438;2023-03-01T06:04:22;10.82;;;8.60;;
10769;SDS011;5437;50.852;4.438;2023-03-01T06:06:48;10.20;;;8.40;;
10769;SDS011;5437;50.852;4.438;2023-03-01T06:09:14;12.00;;;9.02;;
10769;SDS011;5437;50.852;4.438;2023-03-01T06:11:40;9.82;;;8.70;;
10769;SDS011;5437;50.852;4.438;2023-03-01T06:14:07;11.13;;;9.38;;
10769;SDS011;5437;50.852;4.438;2023-03-01T06:16:35;11.15;;;8.18;;
10769;SDS011;5437;50.852;4.438;2023-03-01T06:19:01;10.82;;;9.00;;
10769;SDS011;5437;50.852;4.438;2023-03-01T06:21:27;11.60;;;8.65;;
10769;SDS011;5437;50.852;4.438;2023-03-01T06:23:53;11.23;;;8.95;;
10769;SDS011;5437;50.852;4.438;2023-03-01T06:26:19;11.20;;;8.77;;
10769;SDS011;5437;50.852;4.438;2023-03-01T06:28:45;11.20;;;8.75;;
10769;SDS011;5437;50.852;4.438;2023-03-01T06:31:11;11.00;;;8.90;;
10769;SDS011;5437;50.852;4.438;2023-03-01T06:33:37;11.27;;;8.73;;
10769;SDS011;5437;50.852;4.438;2023-03-01T06:36:03;11.93;;;9.05;;
10769;SDS011;5437;50.852;4.438;2023-03-01T06:38:29;10.73;;;8.43;;
10769;SDS011;5437;50.852;4.438;2023-03-01T06:40:56;11.95;;;9.23;;
10769;SDS011;5437;50.852;4.438;2023-03-01T06:43:22;10.88;;;8.35;;
10769;SDS011;5437;50.852;4.438;2023-03-01T06:45:48;10.90;;;8.73;;
10769;SDS011;5437;50.852;4.438;2023-03-01T06:48:15;12.38;;;8.38;;
10769;SDS011;5437;50.852;4.438;2023-03-01T06:50:41;12.40;;;8.70;;
10769;SDS011;5437;50.852;4.438;2023-03-01T06:53:07;13.57;;;9.30;;
10769;SDS011;5437;50.852;4.438;2023-03-01T06:55:33;10.18;;;8.60;;
10769;SDS011;5437;50.852;4.438;2023-03-01T06:57:59;13.07;;;8.90;;
10769;SDS011;5437;50.852;4.438;2023-03-01T07:00:26;10.55;;;8.57;;
10769;SDS011;5437;50.852;4.438;2023-03-01T07:02:53;10.68;;;8.23;;
10769;SDS011;5437;50.852;4.438;2023-03-01T07:05:19;12.98;;;9.13;;
10769;SDS011;5437;50.852;4.438;2023-03-01T07:07:45;10.80;;;9.15;;
10769;SDS011;5437;50.852;4.438;2023-03-01T07:10:11;14.85;;;8.98;;
10769;SDS011;5437;50.852;4.438;2023-03-01T07:12:37;14.95;;;9.45;;
10769;SDS011;5437;50.852;4.438;2023-03-01T07:15:04;10.23;;;8.63;;
10769;SDS011;5437;50.852;4.438;2023-03-01T07:17:30;11.93;;;8.85;;
10769;SDS011;5437;50.852;4.438;2023-03-01T07:19:56;10.57;;;8.55;;
10769;SDS011;5437;50.852;4.438;2023-03-01T07:22:22;12.60;;;9.32;;
10769;SDS011;5437;50.852;4.438;2023-03-01T07:24:48;12.18;;;9.10;;
10769;SDS011;5437;50.852;4.438;2023-03-01T07:27:14;10.48;;;8.68;;
10769;SDS011;5437;50.852;4.438;2023-03-01T07:29:40;11.15;;;8.55;;
10769;SDS011;5437;50.852;4.438;2023-03-01T07:32:06;12.75;;;9.25;;
10769;SDS011;5437;50.852;4.438;2023-03-01T07:34:32;11.02;;;9.05;;
10769;SDS011;5437;50.852;4.438;2023-03-01T07:36:58;11.82;;;9.05;;
10769;SDS011;5437;50.852;4.438;2023-03-01T07:39:24;10.90;;;8.77;;
10769;SDS011;5437;50.852;4.438;2023-03-01T07:41:50;11.05;;;9.43;;
10769;SDS011;5437;50.852;4.438;2023-03-01T07:44:17;12.02;;;9.30;;
10769;SDS011;5437;50.852;4.438;2023-03-01T07:46:43;11.57;;;9.30;;
10769;SDS011;5437;50.852;4.438;2023-03-01T07:49:09;12.25;;;9.18;;
10769;SDS011;5437;50.852;4.438;2023-03-01T07:51:35;12.38;;;8.90;;
10769;SDS011;5437;50.852;4.438;2023-03-01T07:54:01;14.27;;;9.50;;
10769;SDS011;5437;50.852;4.438;2023-03-01T07:56:27;10.88;;;8.68;;
10769;SDS011;5437;50.852;4.438;2023-03-01T07:58:53;12.77;;;9.30;;
10769;SDS011;5437;50.852;4.438;2023-03-01T08:01:20;11.90;;;9.23;;
10769;SDS011;5437;50.852;4.438;2023-03-01T08:03:46;13.20;;;10.68;;
10769;SDS011;5437;50.852;4.438;2023-03-01T08:06:13;13.93;;;9.30;;
10769;SDS011;5437;50.852;4.438;2023-03-01T08:08:40;13.05;;;9.38;;
10769;SDS011;5437;50.852;4.438;2023-03-01T08:11:07;12.32;;;9.57;;
10769;SDS011;5437;50.852;4.438;2023-03-01T08:13:33;12.40;;;9.57;;
10769;SDS011;5437;50.852;4.438;2023-03-01T08:16:03;11.75;;;8.85;;
10769;SDS011;5437;50.852;4.438;2023-03-01T08:18:29;12.05;;;8.95;;
10769;SDS011;5437;50.852;4.438;2023-03-01T08:20:55;11.32;;;8.98;;
10769;SDS011;5437;50.852;4.438;2023-03-01T08:23:21;11.57;;;9.60;;
10769;SDS011;5437;50.852;4.438;2023-03-01T08:25:47;13.20;;;10.02;;
10769;SDS011;5437;50.852;4.438;2023-03-01T08:28:13;12.13;;;9.80;;
10769;SDS011;5437;50.852;4.438;2023-03-01T08:30:39;11.15;;;9.57;;
10769;SDS011;5437;50.852;4.438;2023-03-01T08:33:05;12.85;;;9.80;;
10769;SDS011;5437;50.852;4.438;2023-03-01T08:35:31;13.07;;;10.20;;
10769;SDS011;5437;50.852;4.438;2023-03-01T08:37:57;12.73;;;9.65;;
10769;SDS011;5437;50.852;4.438;2023-03-01T08:40:23;12.30;;;9.73;;
10769;SDS011;5437;50.852;4.438;2023-03-01T08:42:49;11.32;;;10.13;;
10769;SDS011;5437;50.852;4.438;2023-03-01T08:45:15;15.32;;;9.90;;
10769;SDS011;5437;50.852;4.438;2023-03-01T08:47:43;14.07;;;10.15;;
10769;SDS011;5437;50.852;4.438;2023-03-01T08:50:10;12.63;;;9.55;;
10769;SDS011;5437;50.852;4.438;2023-03-01T08:52:36;14.30;;;9.88;;
10769;SDS011;5437;50.852;4.438;2023-03-01T08:55:02;12.27;;;9.50;;
10769;SDS011;5437;50.852;4.438;2023-03-01T08:57:28;14.18;;;9.98;;
10769;SDS011;5437;50.852;4.438;2023-03-01T08:59:55;11.70;;;8.93;;
10769;SDS011;5437;50.852;4.438;2023-03-01T09:02:21;14.82;;;8.93;;
10769;SDS011;5437;50.852;4.438;2023-03-01T09:04:47;15.65;;;10.18;;
10769;SDS011;5437;50.852;4.438;2023-03-01T09:07:13;14.63;;;10.30;;
10769;SDS011;5437;50.852;4.438;2023-03-01T09:09:39;12.07;;;9.35;;
10769;SDS011;5437;50.852;4.438;2023-03-01T09:12:05;13.88;;;10.00;;
10769;SDS011;5437;50.852;4.438;2023-03-01T09:14:31;13.07;;;9.75;;
10769;SDS011;5437;50.852;4.438;2023-03-01T09:16:57;14.38;;;10.57;;
10769;SDS011;5437;50.852;4.438;2023-03-01T09:19:27;13.57;;;9.68;;
10769;SDS011;5437;50.852;4.438;2023-03-01T09:21:53;11.65;;;9.48;;
10769;SDS011;5437;50.852;4.438;2023-03-01T09:24:21;12.70;;;9.50;;
10769;SDS011;5437;50.852;4.438;2023-03-01T09:26:47;12.73;;;9.55;;
10769;SDS011;5437;50.852;4.438;2023-03-01T09:29:14;11.80;;;9.90;;
10769;SDS011;5437;50.852;4.438;2023-03-01T09:31:40;10.77;;;9.20;;
10769;SDS011;5437;50.852;4.438;2023-03-01T09:34:06;9.80;;;8.80;;
10769;SDS011;5437;50.852;4.438;2023-03-01T09:36:33;9.88;;;8.93;;
10769;SDS011;5437;50.852;4.438;2023-03-01T09:38:59;11.65;;;9.68;;
10769;SDS011;5437;50.852;4.438;2023-03-01T09:47:09;10.68;;;8.93;;
10769;SDS011;5437;50.852;4.438;2023-03-01T09:49:39;10.10;;;8.98;;
10769;SDS011;5437;50.852;4.438;2023-03-01T09:52:15;10.35;;;9.15;;
10769;SDS011;5437;50.852;4.438;2023-03-01T09:54:44;10.55;;;9.55;;
10769;SDS011;5437;50.852;4.438;2023-03-01T09:57:56;10.25;;;9.30;;
10769;SDS011;5437;50.852;4.438;2023-03-01T10:00:58;13.32;;;9.25;;
10769;SDS011;5437;50.852;4.438;2023-03-01T10:02:56;10.52;;;9.52;;
10769;SDS011;5437;50.852;4.438;2023-03-01T10:05:39;11.15;;;10.00;;
10769;SDS011;5437;50.852;4.438;2023-03-01T10:10:37;10.63;;;9.52;;
10769;SDS011;5437;50.852;4.438;2023-03-01T10:13:13;10.95;;;9.95;;
10769;SDS011;5437;50.852;4.438;2023-03-01T10:15:44;12.40;;;9.32;;
10769;SDS011;5437;50.852;4.438;2023-03-01T10:18:19;10.40;;;9.40;;
10769;SDS011;5437;50.852;4.438;2023-03-01T10:20:50;10.90;;;9.80;;
10769;SDS011;5437;50.852;4.438;2023-03-01T10:23:17;12.27;;;9.40;;
10769;SDS011;5437;50.852;4.438;2023-03-01T10:28:40;10.38;;;9.30;;
10769;SDS011;5437;50.852;4.438;2023-03-01T10:31:13;10.63;;;9.50;;
10769;SDS011;5437;50.852;4.438;2023-03-01T10:33:40;10.80;;;9.52;;
10769;SDS011;5437;50.852;4.438;2023-03-01T10:36:07;10.90;;;9.80;;
10769;SDS011;5437;50.852;4.438;2023-03-01T10:41:19;12.73;;;9.52;;
10769;SDS011;5437;50.852;4.438;2023-03-01T10:43:46;10.50;;;9.35;;
10769;SDS011;5437;50.852;4.438;2023-03-01T10:46:27;10.95;;;8.80;;
10769;SDS011;5437;50.852;4.438;2023-03-01T10:51:39;10.20;;;9.13;;
10769;SDS011;5437;50.852;4.438;2023-03-01T10:54:06;9.35;;;8.40;;
10769;SDS011;5437;50.852;4.438;2023-03-01T10:56:47;10.68;;;8.93;;
10769;SDS011;5437;50.852;4.438;2023-03-01T10:59:27;11.32;;;8.82;;
10769;SDS011;5437;50.852;4.438;2023-03-01T11:04:38;9.93;;;8.93;;
10769;SDS011;5437;50.852;4.438;2023-03-01T11:07:04;10.20;;;8.93;;
10769;SDS011;5437;50.852;4.438;2023-03-01T11:09:31;10.25;;;9.15;;
10769;SDS011;5437;50.852;4.438;2023-03-01T11:12:02;10.85;;;8.95;;
10769;SDS011;5437;50.852;4.438;2023-03-01T11:14:31;9.50;;;8.60;;
10769;SDS011;5437;50.852;4.438;2023-03-01T11:17:11;9.20;;;8.30;;
10769;SDS011;5437;50.852;4.438;2023-03-01T11:19:38;9.23;;;8.23;;
10769;SDS011;5437;50.852;4.438;2023-03-01T11:22:11;10.07;;;9.02;;
10769;SDS011;5437;50.852;4.438;2023-03-01T11:24:40;11.05;;;8.63;;
10769;SDS011;5437;50.852;4.438;2023-03-01T11:27:11;9.43;;;8.52;;
10769;SDS011;5437;50.852;4.438;2023-03-01T11:29:45;9.70;;;8.70;;
10769;SDS011;5437;50.852;4.438;2023-03-01T11:32:13;9.02;;;8.10;;
10769;SDS011;5437;50.852;4.438;2023-03-01T11:34:43;10.38;;;8.48;;
10769;SDS011;5437;50.852;4.438;2023-03-01T11:42:18;10.40;;;8.68;;
10769;SDS011;5437;50.852;4.438;2023-03-01T11:44:44;10.52;;;8.63;;
10769;SDS011;5437;50.852;4.438;2023-03-01T11:47:29;9.13;;;8.27;;
10769;SDS011;5437;50.852;4.438;2023-03-01T11:52:36;9.45;;;8.30;;
10769;SDS011;5437;50.852;4.438;2023-03-01T12:08:05;8.65;;;7.80;;
10769;SDS011;5437;50.852;4.438;2023-03-01T12:10:43;9.73;;;7.75;;
10769;SDS011;5437;50.852;4.438;2023-03-01T12:21:02;8.88;;;7.95;;
10769;SDS011;5437;50.852;4.438;2023-03-01T12:28:50;9.35;;;8.05;;
10769;SDS011;5437;50.852;4.438;2023-03-01T12:31:26;10.00;;;7.72;;
10769;SDS011;5437;50.852;4.438;2023-03-01T12:36:49;9.55;;;7.78;;
10769;SDS011;5437;50.852;4.438;2023-03-01T12:44:29;8.60;;;7.70;;
10769;SDS011;5437;50.852;4.438;2023-03-01T12:49:29;8.65;;;7.75;;
10769;SDS011;5437;50.852;4.438;2023-03-01T12:51:59;9.63;;;8.15;;
10769;SDS011;5437;50.852;4.438;2023-03-01T12:54:28;9.75;;;8.00;;
10769;SDS011;5437;50.852;4.438;2023-03-01T12:56:55;11.60;;;8.18;;
10769;SDS011;5437;50.852;4.438;2023-03-01T13:07:04;9.05;;;8.05;;
10769;SDS011;5437;50.852;4.438;2023-03-01T13:09:40;10.38;;;8.35;;
10769;SDS011;5437;50.852;4.438;2023-03-01T13:15:35;11.55;;;7.95;;
10769;SDS011;5437;50.852;4.438;2023-03-01T13:23:09;8.48;;;7.63;;
10769;SDS011;5437;50.852;4.438;2023-03-01T13:30:57;10.93;;;8.75;;
10769;SDS011;5437;50.852;4.438;2023-03-01T13:35:59;9.52;;;7.82;;
10769;SDS011;5437;50.852;4.438;2023-03-01T13:41:16;10.35;;;8.18;;
10769;SDS011;5437;50.852;4.438;2023-03-01T13:43:43;8.88;;;7.97;;
10769;SDS011;5437;50.852;4.438;2023-03-01T13:46:11;9.43;;;7.68;;
10769;SDS011;5437;50.852;4.438;2023-03-01T13:48:40;9.13;;;7.60;;
10769;SDS011;5437;50.852;4.438;2023-03-01T13:51:09;10.25;;;7.80;;
10769;SDS011;5437;50.852;4.438;2023-03-01T13:53:38;12.73;;;7.85;;
10769;SDS011;5437;50.852;4.438;2023-03-01T13:56:10;9.18;;;7.55;;
10769;SDS011;5437;50.852;4.438;2023-03-01T13:58:48;8.98;;;7.88;;
10769;SDS011;5437;50.852;4.438;2023-03-01T14:03:46;8.65;;;7.65;;
10769;SDS011;5437;50.852;4.438;2023-03-01T14:06:14;9.98;;;8.05;;
10769;SDS011;5437;50.852;4.438;2023-03-01T14:08:44;10.13;;;7.45;;
10769;SDS011;5437;50.852;4.438;2023-03-01T14:13:48;9.57;;;8.05;;
10769;SDS011;5437;50.852;4.438;2023-03-01T14:16:33;8.57;;;7.22;;
10769;SDS011;5437;50.852;4.438;2023-03-01T14:19:05;10.73;;;8.35;;
10769;SDS011;5437;50.852;4.438;2023-03-01T14:21:33;9.38;;;8.23;;
10769;SDS011;5437;50.852;4.438;2023-03-01T14:24:01;8.55;;;7.65;;
10769;SDS011;5437;50.852;4.438;2023-03-01T14:26:27;9.43;;;7.80;;
10769;SDS011;5437;50.852;4.438;2023-03-01T14:28:53;9.75;;;7.97;;
10769;SDS011;5437;50.852;4.438;2023-03-01T14:31:31;10.35;;;8.27;;
10769;SDS011;5437;50.852;4.438;2023-03-01T14:33:58;11.23;;;8.15;;
10769;SDS011;5437;50.852;4.438;2023-03-01T14:36:28;9.52;;;8.32;;
10769;SDS011;5437;50.852;4.438;2023-03-01T14:38:55;8.77;;;7.78;;
10769;SDS011;5437;50.852;4.438;2023-03-01T14:41:25;9.45;;;8.10;;
10769;SDS011;5437;50.852;4.438;2023-03-01T14:43:54;10.27;;;7.90;;
10769;SDS011;5437;50.852;4.438;2023-03-01T14:46:30;9.93;;;7.90;;
10769;SDS011;5437;50.852;4.438;2023-03-01T14:49:00;8.98;;;8.07;;
10769;SDS011;5437;50.852;4.438;2023-03-01T14:51:27;9.73;;;7.88;;
10769;SDS011;5437;50.852;4.438;2023-03-01T14:53:53;9.70;;;7.85;;
10769;SDS011;5437;50.852;4.438;2023-03-01T14:56:19;12.23;;;8.30;;
10769;SDS011;5437;50.852;4.438;2023-03-01T14:58:46;11.20;;;7.68;;
10769;SDS011;5437;50.852;4.438;2023-03-01T15:01:13;11.23;;;7.97;;
10769;SDS011;5437;50.852;4.438;2023-03-01T15:03:41;9.95;;;7.93;;
10769;SDS011;5437;50.852;4.438;2023-03-01T15:06:09;10.55;;;8.02;;
10769;SDS011;5437;50.852;4.438;2023-03-01T15:08:37;10.30;;;7.90;;
10769;SDS011;5437;50.852;4.438;2023-03-01T15:11:21;10.30;;;7.88;;
10769;SDS011;5437;50.852;4.438;2023-03-01T15:13:49;9.93;;;8.13;;
10769;SDS011;5437;50.852;4.438;2023-03-01T15:16:19;9.77;;;8.15;;
10769;SDS011;5437;50.852;4.438;2023-03-01T15:18:50;9.18;;;7.55;;
10769;SDS011;5437;50.852;4.438;2023-03-01T15:21:23;10.50;;;8.25;;
10769;SDS011;5437;50.852;4.438;2023-03-01T15:23:50;9.52;;;7.90;;
10769;SDS011;5437;50.852;4.438;2023-03-01T15:26:21;9.30;;;8.30;;
10769;SDS011;5437;50.852;4.438;2023-03-01T15:28:51;10.65;;;7.80;;
10769;SDS011;5437;50.852;4.438;2023-03-01T15:33:44;10.65;;;7.88;;
10769;SDS011;5437;50.852;4.438;2023-03-01T15:36:32;9.90;;;8.52;;
10769;SDS011;5437;50.852;4.438;2023-03-01T15:38:59;8.60;;;7.50;;
10769;SDS011;5437;50.852;4.438;2023-03-01T15:41:26;9.68;;;7.72;;
10769;SDS011;5437;50.852;4.438;2023-03-01T15:43:52;9.63;;;7.75;;
10769;SDS011;5437;50.852;4.438;2023-03-01T15:46:22;11.35;;;8.02;;
10769;SDS011;5437;50.852;4.438;2023-03-01T15:48:50;10.98;;;7.90;;
10769;SDS011;5437;50.852;4.438;2023-03-01T15:51:17;9.07;;;7.70;;
10769;SDS011;5437;50.852;4.438;2023-03-01T15:53:46;10.07;;;8.00;;
10769;SDS011;5437;50.852;4.438;2023-03-01T15:56:15;10.27;;;7.43;;
10769;SDS011;5437;50.852;4.438;2023-03-01T15:58:41;9.13;;;7.72;;
10769;SDS011;5437;50.852;4.438;2023-03-01T16:01:16;9.30;;;7.57;;
10769;SDS011;5437;50.852;4.438;2023-03-01T16:03:43;9.82;;;7.13;;
10769;SDS011;5437;50.852;4.438;2023-03-01T16:06:10;9.15;;;7.88;;
10769;SDS011;5437;50.852;4.438;2023-03-01T16:08:36;10.55;;;7.88;;
10769;SDS011;5437;50.852;4.438;2023-03-01T16:11:03;8.63;;;7.25;;
10769;SDS011;5437;50.852;4.438;2023-03-01T16:13:30;8.95;;;6.68;;
10769;SDS011;5437;50.852;4.438;2023-03-01T16:15:57;10.52;;;7.35;;
10769;SDS011;5437;50.852;4.438;2023-03-01T16:18:23;7.43;;;6.57;;
10769;SDS011;5437;50.852;4.438;2023-03-01T16:20:49;8.80;;;7.78;;
10769;SDS011;5437;50.852;4.438;2023-03-01T16:23:15;9.43;;;6.82;;
10769;SDS011;5437;50.852;4.438;2023-03-01T16:25:41;8.30;;;7.03;;
10769;SDS011;5437;50.852;4.438;2023-03-01T16:28:07;8.20;;;6.90;;
10769;SDS011;5437;50.852;4.438;2023-03-01T16:30:35;7.30;;;6.38;;
10769;SDS011;5437;50.852;4.438;2023-03-01T16:33:01;8.65;;;6.72;;
10769;SDS011;5437;50.852;4.438;2023-03-01T16:35:27;9.20;;;6.93;;
10769;SDS011;5437;50.852;4.438;2023-03-01T16:37:53;7.75;;;6.95;;
10769;SDS011;5437;50.852;4.438;2023-03-01T16:40:24;8.18;;;7.07;;
10769;SDS011;5437;50.852;4.438;2023-03-01T16:42:51;8.48;;;7.30;;
10769;SDS011;5437;50.852;4.438;2023-03-01T16:45:18;8.38;;;7.07;;
10769;SDS011;5437;50.852;4.438;2023-03-01T16:47:44;9.32;;;7.60;;
10769;SDS011;5437;50.852;4.438;2023-03-01T16:50:10;8.40;;;7.50;;
10769;SDS011;5437;50.852;4.438;2023-03-01T16:52:37;9.23;;;7.72;;
10769;SDS011;5437;50.852;4.438;2023-03-01T16:55:03;8.50;;;7.40;;
10769;SDS011;5437;50.852;4.438;2023-03-01T16:57:30;8.45;;;7.35;;
10769;SDS011;5437;50.852;4.438;2023-03-01T16:59:56;10.32;;;7.70;;